sensor_id;sensor_type;location;lat;lon;timestamp;P1;durP1;ratioP1;P2;durP2;ratioP2
68993;SDS011;56054;50.968;5.816;2022-07-09T00:02:27;4.25;;;1.60;;
68993;SDS011;56054;50.968;5.816;2022-07-09T00:05:34;6.35;;;1.75;;
68993;SDS011;56054;50.968;5.816;2022-07-09T00:08:41;5.57;;;2.05;;
68993;SDS011;56054;50.968;5.816;2022-07-09T00:11:49;2.85;;;1.60;;
68993;SDS011;56054;50.968;5.816;2022-07-09T00:14:56;3.08;;;1.40;;
68993;SDS011;56054;50.968;5.816;2022-07-09T00:18:03;2.83;;;1.58;;
68993;SDS011;56054;50.968;5.816;2022-07-09T00:21:15;6.45;;;1.80;;
68993;SDS011;56054;50.968;5.816;2022-07-09T00:24:24;4.35;;;1.95;;
68993;SDS011;56054;50.968;5.816;2022-07-09T00:27:31;5.18;;;1.95;;
68993;SDS011;56054;50.968;5.816;2022-07-09T00:30:38;5.28;;;1.88;;
68993;SDS011;56054;50.968;5.816;2022-07-09T00:33:45;5.45;;;2.22;;
68993;SDS011;56054;50.968;5.816;2022-07-09T00:36:52;6.95;;;2.58;;
68993;SDS011;56054;50.968;5.816;2022-07-09T00:39:59;5.20;;;2.30;;
68993;SDS011;56054;50.968;5.816;2022-07-09T00:43:19;5.28;;;2.22;;
68993;SDS011;56054;50.968;5.816;2022-07-09T00:46:27;7.03;;;2.35;;
68993;SDS011;56054;50.968;5.816;2022-07-09T00:49:36;6.82;;;2.40;;
68993;SDS011;56054;50.968;5.816;2022-07-09T00:52:46;5.43;;;2.53;;
68993;SDS011;56054;50.968;5.816;2022-07-09T00:55:55;5.38;;;2.55;;
68993;SDS011;56054;50.968;5.816;2022-07-09T00:59:02;3.72;;;2.25;;
68993;SDS011;56054;50.968;5.816;2022-07-09T01:02:10;7.60;;;2.67;;
68993;SDS011;56054;50.968;5.816;2022-07-09T01:05:17;9.15;;;2.47;;
68993;SDS011;56054;50.968;5.816;2022-07-09T01:08:24;3.80;;;2.05;;
68993;SDS011;56054;50.968;5.816;2022-07-09T01:11:32;3.95;;;2.05;;
68993;SDS011;56054;50.968;5.816;2022-07-09T01:14:47;6.72;;;2.17;;
68993;SDS011;56054;50.968;5.816;2022-07-09T01:18:09;7.30;;;2.40;;
68993;SDS011;56054;50.968;5.816;2022-07-09T01:21:17;6.53;;;1.90;;
68993;SDS011;56054;50.968;5.816;2022-07-09T01:25:01;8.25;;;2.25;;
68993;SDS011;56054;50.968;5.816;2022-07-09T01:28:14;3.33;;;1.92;;
68993;SDS011;56054;50.968;5.816;2022-07-09T01:31:21;4.97;;;2.40;;
68993;SDS011;56054;50.968;5.816;2022-07-09T01:34:28;5.28;;;2.33;;
68993;SDS011;56054;50.968;5.816;2022-07-09T01:37:35;3.78;;;1.95;;
68993;SDS011;56054;50.968;5.816;2022-07-09T01:40:42;4.57;;;2.33;;
68993;SDS011;56054;50.968;5.816;2022-07-09T01:43:49;5.65;;;2.38;;
68993;SDS011;56054;50.968;5.816;2022-07-09T01:46:56;6.00;;;2.30;;
68993;SDS011;56054;50.968;5.816;2022-07-09T01:50:03;5.65;;;2.28;;
68993;SDS011;56054;50.968;5.816;2022-07-09T01:53:25;5.70;;;2.55;;
68993;SDS011;56054;50.968;5.816;2022-07-09T01:57:15;4.72;;;2.20;;
68993;SDS011;56054;50.968;5.816;2022-07-09T02:00:49;7.97;;;2.70;;
68993;SDS011;56054;50.968;5.816;2022-07-09T02:04:31;8.07;;;2.83;;
68993;SDS011;56054;50.968;5.816;2022-07-09T02:08:03;7.78;;;2.88;;
68993;SDS011;56054;50.968;5.816;2022-07-09T02:11:10;10.10;;;3.42;;
68993;SDS011;56054;50.968;5.816;2022-07-09T02:14:24;5.07;;;2.45;;
68993;SDS011;56054;50.968;5.816;2022-07-09T02:17:40;11.55;;;2.42;;
68993;SDS011;56054;50.968;5.816;2022-07-09T02:21:12;5.63;;;2.70;;
68993;SDS011;56054;50.968;5.816;2022-07-09T02:24:45;13.73;;;3.00;;
68993;SDS011;56054;50.968;5.816;2022-07-09T02:28:04;5.90;;;2.90;;
68993;SDS011;56054;50.968;5.816;2022-07-09T02:31:11;7.68;;;3.22;;
68993;SDS011;56054;50.968;5.816;2022-07-09T02:34:36;7.22;;;3.25;;
68993;SDS011;56054;50.968;5.816;2022-07-09T02:37:44;5.90;;;3.70;;
68993;SDS011;56054;50.968;5.816;2022-07-09T02:40:51;8.25;;;3.35;;
68993;SDS011;56054;50.968;5.816;2022-07-09T02:44:23;7.00;;;2.80;;
68993;SDS011;56054;50.968;5.816;2022-07-09T02:47:34;7.63;;;3.22;;
68993;SDS011;56054;50.968;5.816;2022-07-09T02:50:41;8.05;;;3.50;;
68993;SDS011;56054;50.968;5.816;2022-07-09T02:53:48;5.78;;;3.58;;
68993;SDS011;56054;50.968;5.816;2022-07-09T02:56:55;5.75;;;3.67;;
68993;SDS011;56054;50.968;5.816;2022-07-09T03:00:02;10.65;;;3.97;;
68993;SDS011;56054;50.968;5.816;2022-07-09T03:03:10;11.82;;;4.25;;
68993;SDS011;56054;50.968;5.816;2022-07-09T03:06:17;8.95;;;4.22;;
68993;SDS011;56054;50.968;5.816;2022-07-09T03:09:24;9.98;;;3.92;;
68993;SDS011;56054;50.968;5.816;2022-07-09T03:12:35;7.68;;;3.30;;
68993;SDS011;56054;50.968;5.816;2022-07-09T03:15:42;6.47;;;3.90;;
68993;SDS011;56054;50.968;5.816;2022-07-09T03:18:49;13.45;;;4.00;;
68993;SDS011;56054;50.968;5.816;2022-07-09T03:21:56;7.72;;;3.88;;
68993;SDS011;56054;50.968;5.816;2022-07-09T03:25:03;9.25;;;4.13;;
68993;SDS011;56054;50.968;5.816;2022-07-09T03:28:11;9.02;;;4.57;;
68993;SDS011;56054;50.968;5.816;2022-07-09T03:31:18;11.82;;;4.57;;
68993;SDS011;56054;50.968;5.816;2022-07-09T03:34:25;8.68;;;4.53;;
68993;SDS011;56054;50.968;5.816;2022-07-09T03:37:35;11.75;;;5.10;;
68993;SDS011;56054;50.968;5.816;2022-07-09T03:40:44;10.13;;;4.53;;
68993;SDS011;56054;50.968;5.816;2022-07-09T03:43:51;9.45;;;4.38;;
68993;SDS011;56054;50.968;5.816;2022-07-09T03:46:58;8.43;;;4.57;;
68993;SDS011;56054;50.968;5.816;2022-07-09T03:50:06;11.20;;;4.93;;
68993;SDS011;56054;50.968;5.816;2022-07-09T03:53:19;10.38;;;4.28;;
68993;SDS011;56054;50.968;5.816;2022-07-09T03:56:26;10.07;;;3.42;;
68993;SDS011;56054;50.968;5.816;2022-07-09T03:59:33;5.30;;;3.80;;
68993;SDS011;56054;50.968;5.816;2022-07-09T04:02:40;7.50;;;3.85;;
68993;SDS011;56054;50.968;5.816;2022-07-09T04:05:47;12.75;;;3.88;;
68993;SDS011;56054;50.968;5.816;2022-07-09T04:08:59;11.85;;;3.97;;
68993;SDS011;56054;50.968;5.816;2022-07-09T04:12:06;6.13;;;3.90;;
68993;SDS011;56054;50.968;5.816;2022-07-09T04:15:14;6.47;;;4.03;;
68993;SDS011;56054;50.968;5.816;2022-07-09T04:18:21;6.18;;;4.15;;
68993;SDS011;56054;50.968;5.816;2022-07-09T04:21:28;9.80;;;3.88;;
68993;SDS011;56054;50.968;5.816;2022-07-09T04:24:39;11.00;;;4.60;;
68993;SDS011;56054;50.968;5.816;2022-07-09T04:27:46;12.07;;;4.93;;
68993;SDS011;56054;50.968;5.816;2022-07-09T04:30:53;13.52;;;5.20;;
68993;SDS011;56054;50.968;5.816;2022-07-09T04:34:00;9.13;;;4.38;;
68993;SDS011;56054;50.968;5.816;2022-07-09T04:37:07;11.43;;;6.15;;
68993;SDS011;56054;50.968;5.816;2022-07-09T04:40:14;16.70;;;8.07;;
68993;SDS011;56054;50.968;5.816;2022-07-09T04:43:21;14.88;;;7.78;;
68993;SDS011;56054;50.968;5.816;2022-07-09T04:46:29;17.30;;;8.07;;
68993;SDS011;56054;50.968;5.816;2022-07-09T04:49:36;16.17;;;8.32;;
68993;SDS011;56054;50.968;5.816;2022-07-09T04:52:44;13.77;;;8.65;;
68993;SDS011;56054;50.968;5.816;2022-07-09T04:55:51;17.98;;;7.95;;
68993;SDS011;56054;50.968;5.816;2022-07-09T04:58:58;13.20;;;8.50;;
68993;SDS011;56054;50.968;5.816;2022-07-09T05:02:05;11.43;;;8.20;;
68993;SDS011;56054;50.968;5.816;2022-07-09T05:05:12;17.38;;;8.05;;
68993;SDS011;56054;50.968;5.816;2022-07-09T05:08:19;21.70;;;8.77;;
68993;SDS011;56054;50.968;5.816;2022-07-09T05:11:29;14.38;;;8.48;;
68993;SDS011;56054;50.968;5.816;2022-07-09T05:14:39;17.23;;;8.40;;
68993;SDS011;56054;50.968;5.816;2022-07-09T05:17:46;12.13;;;7.68;;
68993;SDS011;56054;50.968;5.816;2022-07-09T05:20:53;19.77;;;9.18;;
68993;SDS011;56054;50.968;5.816;2022-07-09T05:24:00;17.23;;;8.52;;
68993;SDS011;56054;50.968;5.816;2022-07-09T05:27:07;13.95;;;8.20;;
68993;SDS011;56054;50.968;5.816;2022-07-09T05:30:14;16.00;;;9.50;;
68993;SDS011;56054;50.968;5.816;2022-07-09T05:33:22;15.82;;;9.27;;
68993;SDS011;56054;50.968;5.816;2022-07-09T05:36:34;13.43;;;9.00;;
68993;SDS011;56054;50.968;5.816;2022-07-09T05:39:43;18.38;;;8.82;;
68993;SDS011;56054;50.968;5.816;2022-07-09T05:43:00;16.80;;;10.15;;
68993;SDS011;56054;50.968;5.816;2022-07-09T05:46:07;17.20;;;9.18;;
68993;SDS011;56054;50.968;5.816;2022-07-09T05:49:14;18.67;;;8.77;;
68993;SDS011;56054;50.968;5.816;2022-07-09T05:52:21;16.90;;;9.70;;
68993;SDS011;56054;50.968;5.816;2022-07-09T05:55:34;22.67;;;10.25;;
68993;SDS011;56054;50.968;5.816;2022-07-09T05:58:41;21.73;;;12.35;;
68993;SDS011;56054;50.968;5.816;2022-07-09T06:01:48;22.58;;;12.65;;
68993;SDS011;56054;50.968;5.816;2022-07-09T06:04:55;23.30;;;12.23;;
68993;SDS011;56054;50.968;5.816;2022-07-09T06:08:02;26.27;;;14.32;;
68993;SDS011;56054;50.968;5.816;2022-07-09T06:11:14;24.92;;;13.30;;
68993;SDS011;56054;50.968;5.816;2022-07-09T06:14:21;21.80;;;13.07;;
68993;SDS011;56054;50.968;5.816;2022-07-09T06:17:28;25.58;;;15.10;;
68993;SDS011;56054;50.968;5.816;2022-07-09T06:20:35;22.23;;;14.35;;
68993;SDS011;56054;50.968;5.816;2022-07-09T06:23:42;21.70;;;14.02;;
68993;SDS011;56054;50.968;5.816;2022-07-09T06:26:49;22.45;;;14.23;;
68993;SDS011;56054;50.968;5.816;2022-07-09T06:30:21;19.92;;;13.25;;
68993;SDS011;56054;50.968;5.816;2022-07-09T06:33:29;20.48;;;12.90;;
68993;SDS011;56054;50.968;5.816;2022-07-09T06:36:37;15.73;;;11.02;;
68993;SDS011;56054;50.968;5.816;2022-07-09T06:39:45;14.48;;;10.25;;
68993;SDS011;56054;50.968;5.816;2022-07-09T06:42:52;17.75;;;10.98;;
68993;SDS011;56054;50.968;5.816;2022-07-09T06:46:07;15.25;;;9.25;;
68993;SDS011;56054;50.968;5.816;2022-07-09T06:49:39;12.38;;;7.85;;
68993;SDS011;56054;50.968;5.816;2022-07-09T06:52:47;12.32;;;7.30;;
68993;SDS011;56054;50.968;5.816;2022-07-09T06:55:54;14.98;;;7.85;;
68993;SDS011;56054;50.968;5.816;2022-07-09T06:59:01;10.35;;;8.00;;
68993;SDS011;56054;50.968;5.816;2022-07-09T07:02:08;12.75;;;7.00;;
68993;SDS011;56054;50.968;5.816;2022-07-09T07:05:15;14.02;;;7.10;;
68993;SDS011;56054;50.968;5.816;2022-07-09T07:08:22;13.27;;;6.68;;
68993;SDS011;56054;50.968;5.816;2022-07-09T07:11:29;15.93;;;7.15;;
68993;SDS011;56054;50.968;5.816;2022-07-09T07:14:36;12.43;;;7.75;;
68993;SDS011;56054;50.968;5.816;2022-07-09T07:17:43;12.98;;;6.75;;
68993;SDS011;56054;50.968;5.816;2022-07-09T07:20:50;14.38;;;5.30;;
68993;SDS011;56054;50.968;5.816;2022-07-09T07:23:57;13.63;;;5.15;;
68993;SDS011;56054;50.968;5.816;2022-07-09T07:27:04;7.07;;;5.10;;
68993;SDS011;56054;50.968;5.816;2022-07-09T07:30:20;7.30;;;4.50;;
68993;SDS011;56054;50.968;5.816;2022-07-09T07:33:27;10.30;;;4.47;;
68993;SDS011;56054;50.968;5.816;2022-07-09T07:36:39;12.00;;;4.95;;
68993;SDS011;56054;50.968;5.816;2022-07-09T07:39:46;12.38;;;7.13;;
68993;SDS011;56054;50.968;5.816;2022-07-09T07:42:54;13.63;;;7.38;;
68993;SDS011;56054;50.968;5.816;2022-07-09T07:46:01;13.13;;;6.45;;
68993;SDS011;56054;50.968;5.816;2022-07-09T07:49:09;15.18;;;7.65;;
68993;SDS011;56054;50.968;5.816;2022-07-09T07:52:16;9.45;;;6.53;;
68993;SDS011;56054;50.968;5.816;2022-07-09T07:55:23;16.05;;;5.82;;
68993;SDS011;56054;50.968;5.816;2022-07-09T07:58:30;13.45;;;5.82;;
68993;SDS011;56054;50.968;5.816;2022-07-09T08:01:38;11.68;;;5.93;;
68993;SDS011;56054;50.968;5.816;2022-07-09T08:04:50;16.50;;;5.60;;
68993;SDS011;56054;50.968;5.816;2022-07-09T08:08:00;11.05;;;6.80;;
68993;SDS011;56054;50.968;5.816;2022-07-09T08:11:10;10.68;;;6.05;;
68993;SDS011;56054;50.968;5.816;2022-07-09T08:14:17;11.73;;;6.43;;
68993;SDS011;56054;50.968;5.816;2022-07-09T08:17:24;13.82;;;6.43;;
68993;SDS011;56054;50.968;5.816;2022-07-09T08:20:31;16.35;;;6.03;;
68993;SDS011;56054;50.968;5.816;2022-07-09T08:23:38;9.57;;;6.05;;
68993;SDS011;56054;50.968;5.816;2022-07-09T08:26:58;10.88;;;5.30;;
68993;SDS011;56054;50.968;5.816;2022-07-09T08:30:09;11.55;;;4.72;;
68993;SDS011;56054;50.968;5.816;2022-07-09T08:33:41;11.00;;;3.78;;
68993;SDS011;56054;50.968;5.816;2022-07-09T08:36:48;6.97;;;4.30;;
68993;SDS011;56054;50.968;5.816;2022-07-09T08:39:55;14.85;;;4.90;;
68993;SDS011;56054;50.968;5.816;2022-07-09T08:43:02;8.30;;;4.85;;
68993;SDS011;56054;50.968;5.816;2022-07-09T08:46:10;10.45;;;4.55;;
68993;SDS011;56054;50.968;5.816;2022-07-09T08:49:43;10.90;;;4.53;;
68993;SDS011;56054;50.968;5.816;2022-07-09T08:53:10;6.28;;;4.10;;
68993;SDS011;56054;50.968;5.816;2022-07-09T08:56:19;8.68;;;3.47;;
68993;SDS011;56054;50.968;5.816;2022-07-09T08:59:26;5.22;;;2.53;;
68993;SDS011;56054;50.968;5.816;2022-07-09T09:02:37;2.45;;;1.13;;
68993;SDS011;56054;50.968;5.816;2022-07-09T09:05:44;6.60;;;1.80;;
68993;SDS011;56054;50.968;5.816;2022-07-09T09:09:08;7.97;;;1.73;;
68993;SDS011;56054;50.968;5.816;2022-07-09T09:12:41;3.35;;;1.95;;
68993;SDS011;56054;50.968;5.816;2022-07-09T09:15:48;8.68;;;1.67;;
68993;SDS011;56054;50.968;5.816;2022-07-09T09:18:55;5.50;;;1.40;;
68993;SDS011;56054;50.968;5.816;2022-07-09T09:22:02;4.05;;;1.60;;
68993;SDS011;56054;50.968;5.816;2022-07-09T09:25:14;3.97;;;2.35;;
68993;SDS011;56054;50.968;5.816;2022-07-09T09:28:22;6.10;;;3.17;;
68993;SDS011;56054;50.968;5.816;2022-07-09T09:31:33;6.63;;;2.92;;
68993;SDS011;56054;50.968;5.816;2022-07-09T09:34:48;7.18;;;3.10;;
68993;SDS011;56054;50.968;5.816;2022-07-09T09:38:05;7.85;;;2.83;;
68993;SDS011;56054;50.968;5.816;2022-07-09T09:41:20;8.95;;;3.22;;
68993;SDS011;56054;50.968;5.816;2022-07-09T09:44:34;9.07;;;2.70;;
68993;SDS011;56054;50.968;5.816;2022-07-09T09:47:48;3.95;;;2.60;;
68993;SDS011;56054;50.968;5.816;2022-07-09T09:50:57;4.85;;;1.65;;
68993;SDS011;56054;50.968;5.816;2022-07-09T09:54:07;5.40;;;1.95;;
68993;SDS011;56054;50.968;5.816;2022-07-09T09:57:15;8.95;;;2.70;;
68993;SDS011;56054;50.968;5.816;2022-07-09T10:00:23;4.90;;;2.10;;
68993;SDS011;56054;50.968;5.816;2022-07-09T10:03:30;2.80;;;2.20;;
68993;SDS011;56054;50.968;5.816;2022-07-09T10:06:38;9.20;;;2.05;;
68993;SDS011;56054;50.968;5.816;2022-07-09T10:09:56;4.20;;;1.95;;
68993;SDS011;56054;50.968;5.816;2022-07-09T10:13:04;7.22;;;2.17;;
68993;SDS011;56054;50.968;5.816;2022-07-09T10:16:11;5.72;;;2.30;;
68993;SDS011;56054;50.968;5.816;2022-07-09T10:19:30;6.32;;;2.20;;
68993;SDS011;56054;50.968;5.816;2022-07-09T10:22:43;6.03;;;2.38;;
68993;SDS011;56054;50.968;5.816;2022-07-09T10:29:59;2.67;;;1.70;;
68993;SDS011;56054;50.968;5.816;2022-07-09T10:33:42;6.70;;;2.10;;
68993;SDS011;56054;50.968;5.816;2022-07-09T10:44:40;8.00;;;2.05;;
68993;SDS011;56054;50.968;5.816;2022-07-09T10:48:05;9.45;;;2.00;;
68993;SDS011;56054;50.968;5.816;2022-07-09T10:52:04;4.68;;;1.75;;
68993;SDS011;56054;50.968;5.816;2022-07-09T10:55:21;3.28;;;1.90;;
68993;SDS011;56054;50.968;5.816;2022-07-09T10:58:32;4.35;;;1.63;;
68993;SDS011;56054;50.968;5.816;2022-07-09T11:01:40;3.25;;;1.63;;
68993;SDS011;56054;50.968;5.816;2022-07-09T11:04:48;8.52;;;1.70;;
68993;SDS011;56054;50.968;5.816;2022-07-09T11:11:07;4.45;;;1.50;;
68993;SDS011;56054;50.968;5.816;2022-07-09T11:14:15;7.53;;;1.95;;
68993;SDS011;56054;50.968;5.816;2022-07-09T11:17:22;5.28;;;2.05;;
68993;SDS011;56054;50.968;5.816;2022-07-09T11:20:30;5.50;;;2.20;;
68993;SDS011;56054;50.968;5.816;2022-07-09T11:23:38;7.10;;;2.55;;
68993;SDS011;56054;50.968;5.816;2022-07-09T11:26:45;4.68;;;2.25;;
68993;SDS011;56054;50.968;5.816;2022-07-09T11:33:58;9.82;;;2.38;;
68993;SDS011;56054;50.968;5.816;2022-07-09T11:37:30;5.05;;;2.28;;
68993;SDS011;56054;50.968;5.816;2022-07-09T11:45:23;5.75;;;2.17;;
68993;SDS011;56054;50.968;5.816;2022-07-09T11:53:30;5.20;;;2.28;;
68993;SDS011;56054;50.968;5.816;2022-07-09T12:08:41;9.90;;;3.65;;
68993;SDS011;56054;50.968;5.816;2022-07-09T12:12:59;7.72;;;3.72;;
68993;SDS011;56054;50.968;5.816;2022-07-09T12:20:36;11.82;;;3.58;;
68993;SDS011;56054;50.968;5.816;2022-07-09T12:23:43;7.97;;;4.15;;
68993;SDS011;56054;50.968;5.816;2022-07-09T12:26:50;8.98;;;4.03;;
68993;SDS011;56054;50.968;5.816;2022-07-09T12:29:58;8.90;;;5.90;;
68993;SDS011;56054;50.968;5.816;2022-07-09T12:33:06;15.13;;;11.70;;
68993;SDS011;56054;50.968;5.816;2022-07-09T12:36:15;27.08;;;15.32;;
68993;SDS011;56054;50.968;5.816;2022-07-09T12:39:24;21.98;;;15.48;;
68993;SDS011;56054;50.968;5.816;2022-07-09T12:42:32;26.05;;;14.10;;
68993;SDS011;56054;50.968;5.816;2022-07-09T12:45:40;18.63;;;10.77;;
68993;SDS011;56054;50.968;5.816;2022-07-09T12:48:47;18.33;;;11.70;;
68993;SDS011;56054;50.968;5.816;2022-07-09T12:52:26;14.70;;;10.07;;
68993;SDS011;56054;50.968;5.816;2022-07-09T12:55:35;22.60;;;12.10;;
68993;SDS011;56054;50.968;5.816;2022-07-09T12:58:42;12.10;;;7.50;;
68993;SDS011;56054;50.968;5.816;2022-07-09T13:01:50;12.63;;;9.38;;
68993;SDS011;56054;50.968;5.816;2022-07-09T13:04:57;13.50;;;8.85;;
68993;SDS011;56054;50.968;5.816;2022-07-09T13:08:05;10.20;;;7.25;;
68993;SDS011;56054;50.968;5.816;2022-07-09T13:11:12;15.20;;;13.00;;
68993;SDS011;56054;50.968;5.816;2022-07-09T13:14:20;7.60;;;4.35;;
68993;SDS011;56054;50.968;5.816;2022-07-09T13:17:31;7.03;;;4.82;;
68993;SDS011;56054;50.968;5.816;2022-07-09T13:20:38;8.20;;;4.28;;
68993;SDS011;56054;50.968;5.816;2022-07-09T13:23:46;6.57;;;2.83;;
68993;SDS011;56054;50.968;5.816;2022-07-09T13:26:55;4.50;;;2.00;;
68993;SDS011;56054;50.968;5.816;2022-07-09T13:30:02;3.10;;;2.05;;
68993;SDS011;56054;50.968;5.816;2022-07-09T13:33:10;3.58;;;1.88;;
68993;SDS011;56054;50.968;5.816;2022-07-09T13:36:17;2.42;;;1.73;;
68993;SDS011;56054;50.968;5.816;2022-07-09T13:39:51;5.80;;;2.00;;
68993;SDS011;56054;50.968;5.816;2022-07-09T13:43:09;3.42;;;1.67;;
68993;SDS011;56054;50.968;5.816;2022-07-09T13:46:19;2.88;;;1.40;;
68993;SDS011;56054;50.968;5.816;2022-07-09T13:49:26;2.35;;;1.10;;
68993;SDS011;56054;50.968;5.816;2022-07-09T13:52:33;5.25;;;1.75;;
68993;SDS011;56054;50.968;5.816;2022-07-09T13:55:40;2.13;;;1.10;;
68993;SDS011;56054;50.968;5.816;2022-07-09T13:58:47;2.55;;;0.80;;
68993;SDS011;56054;50.968;5.816;2022-07-09T14:01:54;2.90;;;1.10;;
68993;SDS011;56054;50.968;5.816;2022-07-09T14:05:01;2.70;;;1.30;;
68993;SDS011;56054;50.968;5.816;2022-07-09T14:08:15;2.88;;;0.95;;
68993;SDS011;56054;50.968;5.816;2022-07-09T14:11:22;1.58;;;0.70;;
68993;SDS011;56054;50.968;5.816;2022-07-09T14:14:30;5.35;;;1.15;;
68993;SDS011;56054;50.968;5.816;2022-07-09T14:17:37;2.00;;;1.27;;
68993;SDS011;56054;50.968;5.816;2022-07-09T14:20:45;2.67;;;1.17;;
68993;SDS011;56054;50.968;5.816;2022-07-09T14:23:52;5.03;;;1.40;;
68993;SDS011;56054;50.968;5.816;2022-07-09T14:27:05;3.33;;;1.77;;
68993;SDS011;56054;50.968;5.816;2022-07-09T14:30:12;1.88;;;1.10;;
68993;SDS011;56054;50.968;5.816;2022-07-09T14:33:20;2.92;;;1.02;;
68993;SDS011;56054;50.968;5.816;2022-07-09T14:36:27;8.13;;;1.50;;
68993;SDS011;56054;50.968;5.816;2022-07-09T14:39:35;3.28;;;1.50;;
68993;SDS011;56054;50.968;5.816;2022-07-09T14:42:42;2.20;;;1.00;;
68993;SDS011;56054;50.968;5.816;2022-07-09T14:45:50;5.53;;;1.20;;
68993;SDS011;56054;50.968;5.816;2022-07-09T14:49:01;2.40;;;0.90;;
68993;SDS011;56054;50.968;5.816;2022-07-09T14:52:14;4.35;;;0.90;;
68993;SDS011;56054;50.968;5.816;2022-07-09T14:55:22;4.50;;;0.90;;
68993;SDS011;56054;50.968;5.816;2022-07-09T14:58:30;3.58;;;0.80;;
68993;SDS011;56054;50.968;5.816;2022-07-09T15:01:38;3.85;;;0.80;;
68993;SDS011;56054;50.968;5.816;2022-07-09T15:04:45;3.92;;;0.95;;
68993;SDS011;56054;50.968;5.816;2022-07-09T15:07:52;2.33;;;1.02;;
68993;SDS011;56054;50.968;5.816;2022-07-09T15:11:00;3.30;;;1.85;;
68993;SDS011;56054;50.968;5.816;2022-07-09T15:14:07;3.28;;;0.98;;
68993;SDS011;56054;50.968;5.816;2022-07-09T15:17:15;3.08;;;1.70;;
68993;SDS011;56054;50.968;5.816;2022-07-09T15:20:22;3.95;;;1.58;;
68993;SDS011;56054;50.968;5.816;2022-07-09T15:23:30;3.08;;;1.10;;
68993;SDS011;56054;50.968;5.816;2022-07-09T15:26:41;2.63;;;1.20;;
68993;SDS011;56054;50.968;5.816;2022-07-09T15:29:48;5.57;;;1.08;;
68993;SDS011;56054;50.968;5.816;2022-07-09T15:32:55;2.50;;;0.98;;
68993;SDS011;56054;50.968;5.816;2022-07-09T15:36:15;1.98;;;0.90;;
68993;SDS011;56054;50.968;5.816;2022-07-09T15:39:28;3.53;;;0.82;;
68993;SDS011;56054;50.968;5.816;2022-07-09T15:42:35;1.73;;;0.85;;
68993;SDS011;56054;50.968;5.816;2022-07-09T15:45:42;5.95;;;1.05;;
68993;SDS011;56054;50.968;5.816;2022-07-09T15:48:50;2.05;;;0.82;;
68993;SDS011;56054;50.968;5.816;2022-07-09T15:52:02;1.20;;;0.70;;
68993;SDS011;56054;50.968;5.816;2022-07-09T15:55:15;3.65;;;0.90;;
68993;SDS011;56054;50.968;5.816;2022-07-09T15:58:22;1.48;;;0.90;;
68993;SDS011;56054;50.968;5.816;2022-07-09T16:01:56;3.92;;;0.93;;
68993;SDS011;56054;50.968;5.816;2022-07-09T16:05:02;4.10;;;0.65;;
68993;SDS011;56054;50.968;5.816;2022-07-09T16:08:10;1.63;;;1.10;;
68993;SDS011;56054;50.968;5.816;2022-07-09T16:11:17;1.77;;;1.00;;
68993;SDS011;56054;50.968;5.816;2022-07-09T16:14:31;6.65;;;1.20;;
68993;SDS011;56054;50.968;5.816;2022-07-09T16:17:44;4.05;;;0.70;;
68993;SDS011;56054;50.968;5.816;2022-07-09T16:20:51;6.18;;;0.90;;
68993;SDS011;56054;50.968;5.816;2022-07-09T16:23:58;2.65;;;0.60;;
68993;SDS011;56054;50.968;5.816;2022-07-09T16:27:05;5.28;;;0.68;;
68993;SDS011;56054;50.968;5.816;2022-07-09T16:30:12;1.73;;;0.70;;
68993;SDS011;56054;50.968;5.816;2022-07-09T16:33:20;4.90;;;1.42;;
68993;SDS011;56054;50.968;5.816;2022-07-09T16:36:27;2.85;;;0.75;;
68993;SDS011;56054;50.968;5.816;2022-07-09T16:39:34;4.03;;;0.70;;
68993;SDS011;56054;50.968;5.816;2022-07-09T16:42:50;4.05;;;0.88;;
68993;SDS011;56054;50.968;5.816;2022-07-09T16:46:06;1.25;;;0.57;;
68993;SDS011;56054;50.968;5.816;2022-07-09T16:53:04;1.73;;;0.70;;
68993;SDS011;56054;50.968;5.816;2022-07-09T16:56:11;5.43;;;0.80;;
68993;SDS011;56054;50.968;5.816;2022-07-09T16:59:18;3.63;;;1.05;;
68993;SDS011;56054;50.968;5.816;2022-07-09T17:02:25;4.75;;;1.30;;
68993;SDS011;56054;50.968;5.816;2022-07-09T17:05:32;2.63;;;0.85;;
68993;SDS011;56054;50.968;5.816;2022-07-09T17:08:42;2.13;;;0.47;;
68993;SDS011;56054;50.968;5.816;2022-07-09T17:12:41;1.05;;;0.90;;
68993;SDS011;56054;50.968;5.816;2022-07-09T17:24:44;3.88;;;0.70;;
68993;SDS011;56054;50.968;5.816;2022-07-09T17:32:19;6.60;;;0.60;;
68993;SDS011;56054;50.968;5.816;2022-07-09T17:35:30;1.00;;;0.60;;
68993;SDS011;56054;50.968;5.816;2022-07-09T17:38:40;2.83;;;0.90;;
68993;SDS011;56054;50.968;5.816;2022-07-09T17:42:13;2.60;;;0.90;;
68993;SDS011;56054;50.968;5.816;2022-07-09T17:45:49;3.38;;;0.90;;
68993;SDS011;56054;50.968;5.816;2022-07-09T17:48:55;1.13;;;0.50;;
68993;SDS011;56054;50.968;5.816;2022-07-09T17:52:05;3.35;;;0.90;;
68993;SDS011;56054;50.968;5.816;2022-07-09T17:55:30;2.92;;;0.77;;
68993;SDS011;56054;50.968;5.816;2022-07-09T17:58:41;5.82;;;0.93;;
68993;SDS011;56054;50.968;5.816;2022-07-09T18:01:48;4.47;;;0.95;;
68993;SDS011;56054;50.968;5.816;2022-07-09T18:04:55;2.50;;;0.90;;
68993;SDS011;56054;50.968;5.816;2022-07-09T18:08:02;2.28;;;0.88;;
68993;SDS011;56054;50.968;5.816;2022-07-09T18:11:17;8.43;;;0.88;;
68993;SDS011;56054;50.968;5.816;2022-07-09T18:14:30;0.80;;;0.63;;
68993;SDS011;56054;50.968;5.816;2022-07-09T18:17:37;3.28;;;0.80;;
68993;SDS011;56054;50.968;5.816;2022-07-09T18:20:45;3.55;;;1.00;;
68993;SDS011;56054;50.968;5.816;2022-07-09T18:23:52;6.07;;;0.80;;
68993;SDS011;56054;50.968;5.816;2022-07-09T18:27:00;2.38;;;0.70;;
68993;SDS011;56054;50.968;5.816;2022-07-09T18:30:15;4.55;;;1.10;;
68993;SDS011;56054;50.968;5.816;2022-07-09T18:33:25;6.68;;;1.10;;
68993;SDS011;56054;50.968;5.816;2022-07-09T18:48:40;4.90;;;1.10;;
68993;SDS011;56054;50.968;5.816;2022-07-09T18:57:03;6.65;;;1.17;;
68993;SDS011;56054;50.968;5.816;2022-07-09T19:04:36;6.32;;;1.42;;
68993;SDS011;56054;50.968;5.816;2022-07-09T19:07:54;8.57;;;1.00;;
68993;SDS011;56054;50.968;5.816;2022-07-09T19:11:03;4.43;;;0.80;;
68993;SDS011;56054;50.968;5.816;2022-07-09T19:14:45;2.30;;;0.77;;
68993;SDS011;56054;50.968;5.816;2022-07-09T19:17:59;5.05;;;1.00;;
68993;SDS011;56054;50.968;5.816;2022-07-09T19:22:28;5.15;;;0.63;;
68993;SDS011;56054;50.968;5.816;2022-07-09T19:26:28;3.88;;;1.20;;
68993;SDS011;56054;50.968;5.816;2022-07-09T19:30:10;7.07;;;0.90;;
68993;SDS011;56054;50.968;5.816;2022-07-09T19:33:39;4.00;;;0.90;;
68993;SDS011;56054;50.968;5.816;2022-07-09T19:36:53;3.25;;;0.88;;
68993;SDS011;56054;50.968;5.816;2022-07-09T19:40:12;6.60;;;1.05;;
68993;SDS011;56054;50.968;5.816;2022-07-09T19:43:25;3.83;;;0.75;;
68993;SDS011;56054;50.968;5.816;2022-07-09T19:46:36;5.90;;;0.93;;
68993;SDS011;56054;50.968;5.816;2022-07-09T19:49:45;4.15;;;0.70;;
68993;SDS011;56054;50.968;5.816;2022-07-09T19:53:11;6.15;;;1.20;;
68993;SDS011;56054;50.968;5.816;2022-07-09T20:00:31;3.00;;;0.80;;
68993;SDS011;56054;50.968;5.816;2022-07-09T20:04:09;9.25;;;1.13;;
68993;SDS011;56054;50.968;5.816;2022-07-09T21:06:41;2.67;;;0.90;;
68993;SDS011;56054;50.968;5.816;2022-07-09T21:13:59;3.47;;;0.70;;
68993;SDS011;56054;50.968;5.816;2022-07-09T21:17:08;5.15;;;0.80;;
68993;SDS011;56054;50.968;5.816;2022-07-09T21:20:15;3.65;;;1.05;;
68993;SDS011;56054;50.968;5.816;2022-07-09T22:05:58;1.90;;;0.70;;
68993;SDS011;56054;50.968;5.816;2022-07-09T22:09:05;5.43;;;0.75;;
68993;SDS011;56054;50.968;5.816;2022-07-09T22:12:12;7.18;;;0.85;;
68993;SDS011;56054;50.968;5.816;2022-07-09T22:15:19;4.38;;;1.13;;
68993;SDS011;56054;50.968;5.816;2022-07-09T22:18:26;10.82;;;1.23;;
68993;SDS011;56054;50.968;5.816;2022-07-09T22:29:53;4.30;;;0.90;;
68993;SDS011;56054;50.968;5.816;2022-07-09T22:33:17;3.72;;;0.88;;